Wetterdaten: aktuell Montag, 06.12.2021 12:25
Datum Zeit Temp. Aussen Feuchte A. Sonne Luftdruck Regen Richtung Richtung Sonnen-Zeit Windben
06.12.2021 12:25 3,6 C 65 % 44 % 1016,8 hPa 0,0 l/m SW 223 0 min 0,0 km/h (0 Bft)
06.12.2021 12:20 3,6 C 65 % 44 % 1016,8 hPa 0,0 l/m SW 229 0 min 0,0 km/h (0 Bft)
06.12.2021 12:15 3,6 C 65 % 48 % 1016,8 hPa 0,0 l/m W-SW 238 0 min 0,0 km/h (0 Bft)
06.12.2021 12:10 3,6 C 66 % 50 % 1016,8 hPa 0,0 l/m W-SW 243 0 min 5,2 km/h (1 Bft)
06.12.2021 12:05 3,6 C 68 % 53 % 1016,8 hPa 0,0 l/m SW 231 0 min 0,0 km/h (0 Bft)
06.12.2021 12:00 3,6 C 68 % 54 % 1016,8 hPa 0,0 l/m SW 231 0 min 0,0 km/h (0 Bft)
06.12.2021 11:55 3,5 C 68 % 54 % 1016,8 hPa 0,0 l/m SW 231 0 min 0,0 km/h (0 Bft)
06.12.2021 11:50 3,5 C 68 % 51 % 1016,8 hPa 0,0 l/m SW 231 0 min 0,0 km/h (0 Bft)
06.12.2021 11:45 3,5 C 69 % 46 % 1016,8 hPa 0,0 l/m SW 231 0 min 5,2 km/h (1 Bft)
06.12.2021 11:40 3,4 C 69 % 56 % 1016,8 hPa 0,0 l/m S-SW 208 0 min 4,3 km/h (1 Bft)
06.12.2021 11:35 3,3 C 70 % 48 % 1016,9 hPa 0,0 l/m SW 234 0 min 0,0 km/h (0 Bft)
06.12.2021 11:30 3,6 C 73 % 43 % 1016,8 hPa 0,0 l/m SW 228 0 min 0,0 km/h (0 Bft)
06.12.2021 11:25 3,8 C 76 % 53 % 1016,8 hPa 0,0 l/m W-SW 237 0 min 12,1 km/h (2 Bft)
06.12.2021 11:20 3,8 C 77 % 52 % 1016,8 hPa 0,0 l/m W-SW 238 0 min 0,0 km/h (0 Bft)
06.12.2021 11:15 3,9 C 80 % 54 % 1016,8 hPa 0,0 l/m S 190 0 min 10,4 km/h (2 Bft)
06.12.2021 11:10 4,0 C 81 % 53 % 1016,8 hPa 0,0 l/m SO 130 0 min 0,0 km/h (0 Bft)
06.12.2021 11:05 4,1 C 83 % 58 % 1017,8 hPa 0,0 l/m S-SO 164 0 min 0,0 km/h (0 Bft)
06.12.2021 11:00 4,1 C 85 % 62 % 1017,8 hPa 0,0 l/m S-SW 204 0 min 0,0 km/h (0 Bft)
06.12.2021 10:55 4,0 C 85 % 70 % 1017,8 hPa 0,0 l/m S-SW 204 0 min 0,0 km/h (0 Bft)
06.12.2021 10:50 3,8 C 86 % 66 % 1016,8 hPa 0,0 l/m S 178 0 min 0,0 km/h (0 Bft)
06.12.2021 10:46 3,8 C 88 % 65 % 1016,8 hPa 0,0 l/m SW 223 0 min 0,0 km/h (0 Bft)
06.12.2021 10:40 3,8 C 88 % 66 % 1016,8 hPa 0,0 l/m S-SO 162 0 min 0,0 km/h (0 Bft)
06.12.2021 10:35 3,8 C 89 % 65 % 1016,8 hPa 0,0 l/m S-SO 157 0 min 0,0 km/h (0 Bft)
06.12.2021 10:30 3,7 C 89 % 64 % 1016,8 hPa 0,0 l/m S-SO 157 0 min 0,0 km/h (0 Bft)
06.12.2021 10:25 3,6 C 89 % 66 % 1016,8 hPa 0,0 l/m SW 233 0 min 0,0 km/h (0 Bft)
06.12.2021 10:20 3,4 C 89 % 66 % 1016,8 hPa 0,0 l/m SW 225 0 min 0,0 km/h (0 Bft)
06.12.2021 10:15 3,3 C 89 % 65 % 1016,9 hPa 0,0 l/m SW 225 0 min 0,0 km/h (0 Bft)
06.12.2021 10:10 3,2 C 89 % 66 % 1016,9 hPa 0,0 l/m W-SW 239 0 min 0,0 km/h (0 Bft)
06.12.2021 10:05 3,1 C 89 % 66 % 1016,9 hPa 0,0 l/m W-SW 239 0 min 0,0 km/h (0 Bft)
06.12.2021 10:00 3,0 C 89 % 64 % 1016,9 hPa 0,0 l/m W-SW 239 0 min 0,0 km/h (0 Bft)
06.12.2021 09:55 2,9 C 90 % 64 % 1016,9 hPa 0,0 l/m W-SW 239 0 min 0,0 km/h (0 Bft)
06.12.2021 09:50 2,7 C 90 % 64 % 1016,9 hPa 0,0 l/m W-SW 239 0 min 0,0 km/h (0 Bft)
06.12.2021 09:45 2,6 C 90 % 65 % 1016,9 hPa 0,0 l/m W-SW 239 0 min 0,0 km/h (0 Bft)
06.12.2021 09:40 2,5 C 90 % 65 % 1016,9 hPa 0,0 l/m W-SW 239 0 min 0,0 km/h (0 Bft)
06.12.2021 09:35 2,4 C 90 % 65 % 1017,0 hPa 0,0 l/m W-SW 239 0 min 0,0 km/h (0 Bft)
06.12.2021 09:30 2,3 C 89 % 63 % 1017,0 hPa 0,0 l/m W-SW 239 5 min 0,0 km/h (0 Bft)
06.12.2021 09:25 2,2 C 89 % 62 % 1017,0 hPa 0,0 l/m W-SW 239 5 min 0,0 km/h (0 Bft)
06.12.2021 09:20 2,1 C 89 % 61 % 1017,0 hPa 0,0 l/m W-SW 239 5 min 0,0 km/h (0 Bft)
06.12.2021 09:15 2,1 C 89 % 58 % 1017,0 hPa 0,0 l/m W-SW 239 5 min 0,0 km/h (0 Bft)
06.12.2021 09:10 2,0 C 89 % 59 % 1017,0 hPa 0,0 l/m W-SW 239 5 min 0,0 km/h (0 Bft)
06.12.2021 09:05 2,0 C 89 % 56 % 1017,0 hPa 0,0 l/m W-SW 239 5 min 0,0 km/h (0 Bft)
06.12.2021 09:00 1,9 C 90 % 54 % 1017,0 hPa 0,0 l/m W-SW 239 5 min 0,0 km/h (0 Bft)
06.12.2021 08:55 1,9 C 90 % 52 % 1017,0 hPa 0,0 l/m W-SW 239 5 min 0,0 km/h (0 Bft)
06.12.2021 08:50 1,8 C 90 % 52 % 1017,0 hPa 0,0 l/m W-NW 294 5 min 0,0 km/h (0 Bft)
06.12.2021 08:45 1,7 C 90 % 50 % 1017,0 hPa 0,0 l/m W-NW 293 5 min 0,0 km/h (0 Bft)
06.12.2021 08:40 1,7 C 90 % 50 % 1017,0 hPa 0,0 l/m W-NW 294 5 min 0,0 km/h (0 Bft)
06.12.2021 08:35 1,6 C 89 % 48 % 1017,1 hPa 0,0 l/m W-NW 294 5 min 0,0 km/h (0 Bft)
06.12.2021 08:30 1,6 C 89 % 47 % 1017,1 hPa 0,0 l/m W-NW 294 5 min 0,0 km/h (0 Bft)
06.12.2021 08:25 1,6 C 89 % 44 % 1017,1 hPa 0,0 l/m W-NW 294 5 min 0,0 km/h (0 Bft)
06.12.2021 08:20 1,5 C 89 % 44 % 1016,0 hPa 0,0 l/m W 273 5 min 0,0 km/h (0 Bft)
06.12.2021 08:15 1,5 C 89 % 44 % 1016,0 hPa 0,0 l/m W 276 5 min 0,0 km/h (0 Bft)
06.12.2021 08:10 1,5 C 89 % 43 % 1016,0 hPa 0,0 l/m W-NW 284 0 min 0,0 km/h (0 Bft)
06.12.2021 08:05 1,5 C 89 % 42 % 1016,0 hPa 0,0 l/m W 276 0 min 0,0 km/h (0 Bft)
06.12.2021 08:00 1,4 C 89 % 41 % 1016,0 hPa 0,0 l/m NW 312 0 min 0,0 km/h (0 Bft)
06.12.2021 07:55 1,4 C 89 % 40 % 1016,0 hPa 0,0 l/m NW 308 0 min 0,0 km/h (0 Bft)
06.12.2021 07:50 1,4 C 89 % 39 % 1016,0 hPa 0,0 l/m W 265 0 min 0,0 km/h (0 Bft)
06.12.2021 07:45 1,4 C 89 % 39 % 1016,0 hPa 0,0 l/m W 260 0 min 0,0 km/h (0 Bft)
06.12.2021 07:40 1,4 C 88 % 38 % 1016,0 hPa 0,0 l/m W-SW 258 0 min 0,0 km/h (0 Bft)
06.12.2021 07:35 1,4 C 88 % 38 % 1016,0 hPa 0,0 l/m W 259 0 min 0,0 km/h (0 Bft)
06.12.2021 07:30 1,4 C 88 % 38 % 1016,0 hPa 0,0 l/m W 259 0 min 0,0 km/h (0 Bft)
06.12.2021 07:25 1,4 C 88 % 38 % 1016,0 hPa 0,0 l/m W 259 0 min 0,0 km/h (0 Bft)
06.12.2021 07:20 1,4 C 88 % 38 % 1015,0 hPa 0,0 l/m W 259 0 min 0,0 km/h (0 Bft)
06.12.2021 07:15 1,3 C 88 % 38 % 1015,0 hPa 0,0 l/m W 259 0 min 0,0 km/h (0 Bft)
06.12.2021 07:10 1,3 C 88 % 38 % 1015,0 hPa 0,0 l/m W 259 0 min 0,0 km/h (0 Bft)
06.12.2021 07:05 1,3 C 88 % 38 % 1015,0 hPa 0,0 l/m W 259 0 min 0,0 km/h (0 Bft)
06.12.2021 07:00 1,3 C 88 % 38 % 1015,0 hPa 0,0 l/m W 259 0 min 0,0 km/h (0 Bft)
06.12.2021 06:55 1,3 C 88 % 38 % 1015,0 hPa 0,0 l/m W 259 0 min 0,0 km/h (0 Bft)
06.12.2021 06:50 1,3 C 88 % 38 % 1015,0 hPa 0,0 l/m W 259 0 min 0,0 km/h (0 Bft)
06.12.2021 06:45 1,3 C 88 % 38 % 1015,0 hPa 0,0 l/m W 259 0 min 0,0 km/h (0 Bft)
06.12.2021 06:40 1,3 C 88 % 38 % 1015,0 hPa 0,0 l/m W 259 0 min 0,0 km/h (0 Bft)
06.12.2021 06:35 1,4 C 88 % 38 % 1015,0 hPa 0,0 l/m W 261 0 min 0,0 km/h (0 Bft)
06.12.2021 06:30 1,4 C 88 % 38 % 1015,0 hPa 0,0 l/m W 261 0 min 0,0 km/h (0 Bft)
06.12.2021 06:25 1,3 C 86 % 38 % 1015,0 hPa 0,0 l/m W 261 0 min 0,0 km/h (0 Bft)
06.12.2021 06:20 1,3 C 86 % 38 % 1015,0 hPa 0,0 l/m W 261 0 min 0,0 km/h (0 Bft)
06.12.2021 06:15 1,3 C 86 % 38 % 1015,0 hPa 0,0 l/m W 264 0 min 0,0 km/h (0 Bft)
06.12.2021 06:10 1,2 C 86 % 38 % 1015,0 hPa 0,0 l/m W-SW 238 0 min 0,0 km/h (0 Bft)
06.12.2021 06:05 1,1 C 86 % 38 % 1014,0 hPa 0,0 l/m W-SW 238 0 min 0,0 km/h (0 Bft)
06.12.2021 06:00 1,0 C 86 % 38 % 1014,0 hPa 0,0 l/m W-SW 238 0 min 0,0 km/h (0 Bft)
06.12.2021 05:55 1,0 C 86 % 37 % 1014,0 hPa 0,0 l/m W-SW 238 0 min 0,0 km/h (0 Bft)
06.12.2021 05:50 1,0 C 86 % 38 % 1014,0 hPa 0,0 l/m W-SW 238 0 min 0,0 km/h (0 Bft)
06.12.2021 05:45 1,0 C 85 % 38 % 1014,0 hPa 0,0 l/m W-SW 238 0 min 0,0 km/h (0 Bft)
06.12.2021 05:40 1,1 C 86 % 38 % 1014,0 hPa 0,0 l/m W-SW 238 0 min 0,0 km/h (0 Bft)
06.12.2021 05:35 1,1 C 86 % 38 % 1014,0 hPa 0,0 l/m W-SW 238 0 min 0,0 km/h (0 Bft)
06.12.2021 05:30 1,2 C 86 % 38 % 1014,0 hPa 0,0 l/m W-SW 238 0 min 0,0 km/h (0 Bft)
06.12.2021 05:25 1,2 C 85 % 38 % 1014,0 hPa 0,0 l/m W-SW 238 0 min 0,0 km/h (0 Bft)
06.12.2021 05:20 1,2 C 85 % 38 % 1014,0 hPa 0,0 l/m W-SW 238 0 min 0,0 km/h (0 Bft)
06.12.2021 05:15 1,2 C 85 % 38 % 1014,0 hPa 0,0 l/m W-SW 238 0 min 0,0 km/h (0 Bft)
06.12.2021 05:10 1,2 C 86 % 38 % 1014,0 hPa 0,0 l/m W-SW 244 0 min 0,0 km/h (0 Bft)
06.12.2021 05:05 1,3 C 86 % 38 % 1014,0 hPa 0,0 l/m N 3 0 min 0,0 km/h (0 Bft)
06.12.2021 05:00 1,3 C 85 % 38 % 1014,0 hPa 0,0 l/m N 3 0 min 0,0 km/h (0 Bft)
06.12.2021 04:55 1,3 C 85 % 38 % 1014,0 hPa 0,0 l/m N 4 0 min 0,0 km/h (0 Bft)
06.12.2021 04:50 1,3 C 86 % 38 % 1013,0 hPa 0,0 l/m N 4 0 min 0,0 km/h (0 Bft)
06.12.2021 04:45 1,4 C 86 % 38 % 1012,9 hPa 0,0 l/m N 3 0 min 0,0 km/h (0 Bft)
06.12.2021 04:40 1,4 C 86 % 38 % 1012,9 hPa 0,0 l/m N 3 0 min 0,0 km/h (0 Bft)
06.12.2021 04:35 1,4 C 86 % 38 % 1012,9 hPa 0,0 l/m N 3 0 min 0,0 km/h (0 Bft)
06.12.2021 04:30 1,4 C 86 % 38 % 1012,9 hPa 0,0 l/m N 3 0 min 0,0 km/h (0 Bft)
06.12.2021 04:25 1,3 C 85 % 38 % 1013,0 hPa 0,0 l/m N 3 0 min 0,0 km/h (0 Bft)
06.12.2021 04:20 1,3 C 85 % 38 % 1013,0 hPa 0,0 l/m N 3 0 min 0,0 km/h (0 Bft)
06.12.2021 04:15 1,3 C 85 % 38 % 1013,0 hPa 0,0 l/m N 3 0 min 0,0 km/h (0 Bft)
06.12.2021 04:10 1,3 C 85 % 38 % 1013,0 hPa 0,0 l/m N 3 0 min 0,0 km/h (0 Bft)
06.12.2021 04:05 1,3 C 85 % 38 % 1013,0 hPa 0,0 l/m N 3 0 min 0,0 km/h (0 Bft)
06.12.2021 04:00 1,3 C 85 % 38 % 1013,0 hPa 0,0 l/m N 3 0 min 0,0 km/h (0 Bft)
06.12.2021 03:55 1,3 C 85 % 38 % 1013,0 hPa 0,0 l/m N 3 0 min 0,0 km/h (0 Bft)
06.12.2021 03:50 1,3 C 85 % 38 % 1013,0 hPa 0,0 l/m N 3 0 min 0,0 km/h (0 Bft)
06.12.2021 03:45 1,3 C 85 % 38 % 1013,0 hPa 0,0 l/m N 3 0 min 0,0 km/h (0 Bft)
06.12.2021 03:40 1,4 C 85 % 38 % 1012,9 hPa 0,0 l/m N 4 0 min 0,0 km/h (0 Bft)
06.12.2021 03:35 1,4 C 85 % 38 % 1012,9 hPa 0,0 l/m N 3 0 min 0,0 km/h (0 Bft)
06.12.2021 03:30 1,3 C 85 % 38 % 1013,0 hPa 0,0 l/m N 3 0 min 0,0 km/h (0 Bft)
06.12.2021 03:25 1,3 C 85 % 38 % 1013,0 hPa 0,0 l/m N 3 0 min 0,0 km/h (0 Bft)
06.12.2021 03:20 1,3 C 85 % 38 % 1013,0 hPa 0,0 l/m N 4 0 min 0,0 km/h (0 Bft)
06.12.2021 03:15 1,3 C 84 % 38 % 1013,0 hPa 0,0 l/m N 3 0 min 0,0 km/h (0 Bft)
06.12.2021 03:10 1,3 C 84 % 38 % 1013,0 hPa 0,0 l/m N 3 0 min 6,9 km/h (2 Bft)
06.12.2021 03:05 1,3 C 84 % 38 % 1013,0 hPa 0,0 l/m N 3 0 min 0,0 km/h (0 Bft)
06.12.2021 03:00 1,4 C 84 % 38 % 1012,9 hPa 0,0 l/m SO 127 0 min 0,0 km/h (0 Bft)
06.12.2021 02:55 1,4 C 84 % 38 % 1012,9 hPa 0,0 l/m SW 225 0 min 0,0 km/h (0 Bft)
06.12.2021 02:50 1,4 C 84 % 38 % 1012,9 hPa 0,0 l/m SW 225 0 min 0,0 km/h (0 Bft)
06.12.2021 02:45 1,4 C 84 % 38 % 1012,9 hPa 0,0 l/m SW 225 0 min 0,0 km/h (0 Bft)
06.12.2021 02:40 1,4 C 84 % 37 % 1012,9 hPa 0,0 l/m SW 225 0 min 0,0 km/h (0 Bft)
06.12.2021 02:35 1,3 C 84 % 38 % 1011,9 hPa 0,0 l/m SW 225 0 min 0,0 km/h (0 Bft)
06.12.2021 02:30 1,3 C 84 % 38 % 1011,9 hPa 0,0 l/m SW 225 0 min 0,0 km/h (0 Bft)
06.12.2021 02:25 1,2 C 83 % 38 % 1011,9 hPa 0,0 l/m SW 225 0 min 0,0 km/h (0 Bft)
06.12.2021 02:20 1,1 C 83 % 37 % 1012,0 hPa 0,0 l/m SW 226 0 min 0,0 km/h (0 Bft)
06.12.2021 02:15 1,0 C 83 % 37 % 1012,0 hPa 0,0 l/m SW 225 0 min 0,0 km/h (0 Bft)
06.12.2021 02:10 1,1 C 82 % 38 % 1012,0 hPa 0,0 l/m SW 225 0 min 0,0 km/h (0 Bft)
06.12.2021 02:05 1,1 C 82 % 38 % 1012,0 hPa 0,0 l/m SW 225 0 min 0,0 km/h (0 Bft)
06.12.2021 02:00 1,1 C 82 % 38 % 1012,0 hPa 0,0 l/m SW 225 0 min 0,0 km/h (0 Bft)
06.12.2021 01:55 1,2 C 82 % 38 % 1011,9 hPa 0,0 l/m SW 225 0 min 0,0 km/h (0 Bft)
06.12.2021 01:50 1,2 C 82 % 38 % 1011,9 hPa 0,0 l/m SW 225 0 min 0,0 km/h (0 Bft)
06.12.2021 01:45 1,3 C 82 % 38 % 1011,9 hPa 0,0 l/m SW 225 0 min 0,0 km/h (0 Bft)
06.12.2021 01:40 1,3 C 82 % 38 % 1011,9 hPa 0,0 l/m SW 220 0 min 0,0 km/h (0 Bft)
06.12.2021 01:35 1,3 C 82 % 38 % 1011,9 hPa 0,0 l/m O-SO 106 0 min 0,0 km/h (0 Bft)
06.12.2021 01:30 1,4 C 82 % 38 % 1011,9 hPa 0,0 l/m O-SO 106 0 min 0,0 km/h (0 Bft)
06.12.2021 01:25 1,4 C 82 % 38 % 1011,9 hPa 0,0 l/m O-SO 106 0 min 0,0 km/h (0 Bft)
06.12.2021 01:20 1,4 C 82 % 38 % 1011,9 hPa 0,0 l/m O-SO 106 0 min 0,0 km/h (0 Bft)
06.12.2021 01:15 1,5 C 82 % 38 % 1011,9 hPa 0,0 l/m O-SO 106 0 min 0,0 km/h (0 Bft)
06.12.2021 01:10 1,6 C 82 % 38 % 1011,9 hPa 0,0 l/m O-SO 106 0 min 0,0 km/h (0 Bft)
06.12.2021 01:05 1,6 C 82 % 38 % 1011,9 hPa 0,0 l/m O-SO 106 0 min 0,0 km/h (0 Bft)
06.12.2021 01:00 1,7 C 82 % 38 % 1011,9 hPa 0,0 l/m O-SO 106 0 min 0,0 km/h (0 Bft)
06.12.2021 00:55 1,7 C 82 % 38 % 1011,9 hPa 0,0 l/m O-SO 106 0 min 0,0 km/h (0 Bft)
06.12.2021 00:50 1,7 C 82 % 38 % 1010,9 hPa 0,0 l/m O-SO 106 0 min 0,0 km/h (0 Bft)
06.12.2021 00:45 1,7 C 82 % 38 % 1010,9 hPa 0,0 l/m O-SO 106 0 min 0,0 km/h (0 Bft)
06.12.2021 00:40 1,7 C 82 % 38 % 1010,9 hPa 0,0 l/m O-SO 106 0 min 0,0 km/h (0 Bft)
06.12.2021 00:35 1,7 C 82 % 38 % 1010,9 hPa 0,0 l/m O-SO 106 0 min 0,0 km/h (0 Bft)
06.12.2021 00:30 1,6 C 81 % 38 % 1010,9 hPa 0,0 l/m O-SO 106 0 min 0,0 km/h (0 Bft)
06.12.2021 00:25 1,7 C 81 % 38 % 1010,9 hPa 0,0 l/m O-SO 106 0 min 0,0 km/h (0 Bft)
06.12.2021 00:20 1,6 C 81 % 38 % 1010,9 hPa 0,0 l/m O-SO 106 0 min 0,0 km/h (0 Bft)
06.12.2021 00:15 1,6 C 81 % 37 % 1010,9 hPa 0,0 l/m O-SO 106 0 min 0,0 km/h (0 Bft)
06.12.2021 00:10 1,7 C 81 % 38 % 1010,9 hPa 0,0 l/m O-SO 106 0 min 0,0 km/h (0 Bft)
06.12.2021 00:05 1,6 C 81 % 38 % 1010,9 hPa 0,0 l/m O-SO 106 0 min 0,0 km/h (0 Bft)
06.12.2021 00:00 1,7 C 81 % 38 % 1010,9 hPa 0,0 l/m O-SO 106 0 min 0,0 km/h (0 Bft)
_ Min-Zeit 02:15 12:15 - 00:00 - - - - 00:00
Minimum _ 1,0 C 65 % - 1010,9 hPa - - - - 0,0 km/h (0 Bft)
_ Max-Zeit 11:00 08:40 10:55 10:55 00:00 - - 08:15 11:25
Maximum _ 4,1 C 90 % 70 % 1017,8 hPa 0,0 l/m - - 5 min 12,1 km/h
W-SW (2 Bft)
Durchschnitt _ 1,9 C 84 % #1:20 h 1014,5 hPa #0,0 l/m S - #1:20 h 0,3 km/h (0 Bft)